Bow Island, Canada
Current Conditions -  °F | °C
As of 9:00 AM on Monday 22 Dec 2014 (Local Time) from CYXH Reporting Station
Broken Clouds Broken Clouds  
Wind Chill: 20°   Ceiling: 27000
Heat Index: 28°   Visibility: 30mi
Dew Point: 27°   Wind: 9mph
Humidity: 93%   Direction: 270°W
Pressure: 29.78"   Gusts: NA
Location:  49.87°N, 111.36°W
Report Text: CYXH 221600Z 27008KT 30SM SCT120 BKN270 M02/M03 A2978 RMK AC4CI1 SLP112
Loading
Personal Weather Stations






























Interactive Weather Map New forecast layout! Learn more

10-Day Weather Forecast

Advertisements
Track Severe Weather on mobile